#metar

#METAR LFBO 061730Z AUTO 31014KT CAVOK 25/12 Q1021 NOSIG

#METAR LFBO 061700Z AUTO 31013KT 270V330 9999 FEW001 26/13 Q1021 NOSIG

7日2時現在の天気 札幌 ☁曇 無風 16℃ 仙台 🌂小雨 北1㎧ 20℃ 東京 ☔雨 南9㎧ 25℃ 名古屋 🌂小雨 南南東4㎧ 25℃ 大阪 ☁曇 南南西15㎧ 26℃ 福岡 🌂小雨 不定1㎧ 24℃ 那覇 ☁曇 南6㎧ 29℃ #METAR

#METAR LFBO 061630Z AUTO 31015KT 9999 FEW012 26/13 Q1021 NOSIG

#METAR LFBO 061600Z AUTO 29016KT 9999 FEW014 26/12 Q1021 NOSIG

#METAR LFBO 061530Z AUTO 29017KT 9999 FEW027 25/13 Q1021 NOSIG

#METAR LFBO 061500Z AUTO 29015KT 260V320 9999 FEW036 SCT045 26/14 Q1022 NOSIG

7日0時現在の天気 札幌 ☁曇 南5㎧ 16℃ 仙台 🌂小雨 北1㎧ 20℃ 東京 🌂小雨 南南西10㎧ 26℃ 名古屋 🌂小雨 南東4㎧ 25℃ 大阪 ☁曇 南南西15㎧ 26℃ 福岡 ⚡雷 南南東8㎧ 23℃ 那覇 ☁曇 南5㎧ 29℃ #METAR

#METAR LFBO 061430Z AUTO 28014KT 9999 BKN035 BKN044 24/16 Q1022 NOSIG

#METAR LFBO 061400Z AUTO 28013KT 9999 FEW011 SCT036 OVC043 23/16 Q1022 NOSIG

#METAR LFBO 061330Z AUTO 29014KT 9999 BKN028 BKN034 OVC040 22/16 Q1022 NOSIG

#METAR LFBO 061300Z AUTO 30013KT 9999 FEW026 BKN032 BKN042 23/17 Q1022 NOSIG

6日22時現在の天気 札幌 ☁曇 南南東4㎧ 16℃ 仙台 🌂小雨 北1㎧ 20℃ 東京 🌂小雨 南南西11㎧ 26℃ 名古屋 ☁曇 南東4㎧ 25℃ 大阪 🌂小雨 南南西14㎧ 26℃ 福岡 ⚡雷 南東5㎧ 23℃ 那覇 ⭐晴 南5㎧ 29℃ #METAR

#METAR LFBO 061230Z AUTO 33013KT 9999 BKN030 OVC036 22/16 Q1022 NOSIG

#METAR LFBO 061200Z AUTO 31013KT 9999 FEW014 BKN031 OVC037 23/16 Q1022 NOSIG

#METAR LFBO 061130Z AUTO 29012KT 9999 FEW010 BKN028 OVC036 23/16 Q1022 NOSIG

#METAR LFBO 061100Z AUTO 28011KT 240V320 9999 BKN025 BKN032 22/17 Q1022 NOSIG

6日20時現在の天気 札幌 ☁曇 南南東3㎧ 17℃ 仙台 🌂小雨 無風 20℃ 東京 ☔雨 南南西8㎧ 25℃ 名古屋 🌂小雨 南東5㎧ 24℃ 大阪 ☔雨 南南西14㎧ 26℃ 福岡 ⚡雷 南南東4㎧ 23℃ 那覇 ☁曇 南5㎧ 29℃ #METAR

#METAR LFBO 061030Z AUTO 29010KT 260V320 9999 BKN021 BKN028 OVC033 22/17 Q1022 NOSIG

#METAR LFBO 061000Z AUTO 30009KT 260V330 9999 BKN018 OVC026 21/17 Q1022 NOSIG

Next Page